createdAt,value
2022-11-21T00:01:25.497Z,97778.75
2022-11-21T00:03:55.921Z,97782.63
2022-11-21T00:06:24.711Z,97776.34
2022-11-21T00:08:53.876Z,97767.00
2022-11-21T00:11:22.607Z,97756.09
2022-11-21T00:13:51.448Z,97743.13
2022-11-21T00:16:20.238Z,97743.53
2022-11-21T00:18:48.974Z,97743.53
2022-11-21T00:21:20.783Z,97729.75
2022-11-21T00:23:49.977Z,97725.28
2022-11-21T00:26:18.758Z,97723.84
2022-11-21T00:28:47.882Z,97718.00
2022-11-21T00:31:25.773Z,97709.91
2022-11-21T00:33:54.953Z,97706.31
2022-11-21T00:36:25.117Z,97696.59
2022-11-21T00:38:53.856Z,97683.66
2022-11-21T00:41:22.655Z,97677.19
2022-11-21T00:43:51.365Z,97671.53
2022-11-21T00:46:20.054Z,97674.75
2022-11-21T00:48:48.727Z,97662.41
2022-11-21T00:51:17.522Z,97662.63
2022-11-21T00:53:47.866Z,97657.34
2022-11-21T00:56:16.970Z,97648.06
2022-11-21T00:58:45.714Z,97636.31
2022-11-21T01:01:16.887Z,97624.53
2022-11-21T01:03:46.346Z,97622.72
2022-11-21T01:06:16.705Z,97619.28
2022-11-21T01:08:47.163Z,97606.31
2022-11-21T01:11:18.845Z,97607.94
2022-11-21T01:13:48.849Z,97603.91
2022-11-21T01:16:20.518Z,97608.75
2022-11-21T01:18:49.691Z,97602.69
2022-11-21T01:21:21.532Z,97597.63
2022-11-21T01:23:52.193Z,97589.72
2022-11-21T01:26:24.296Z,97590.16
2022-11-21T01:28:53.731Z,97580.81
2022-11-21T01:31:25.058Z,97580.41
2022-11-21T01:33:55.137Z,97581.81
2022-11-21T01:36:27.001Z,97578.59
2022-11-21T01:39:00.863Z,97579.19
2022-11-21T01:41:35.927Z,97577.78
2022-11-21T01:44:16.247Z,97573.53
2022-11-21T01:46:45.042Z,97573.91
2022-11-21T01:49:19.174Z,97567.44
2022-11-21T01:51:57.304Z,97563.38
2022-11-21T01:54:34.988Z,97568.44
2022-11-21T01:57:09.925Z,97565.41
2022-11-21T01:59:46.904Z,97558.91
2022-11-21T02:02:21.782Z,97556.06
2022-11-21T02:04:53.407Z,97551.44
2022-11-21T02:07:24.920Z,97547.19
2022-11-21T02:10:01.009Z,97544.34
2022-11-21T02:12:39.284Z,97546.56
2022-11-21T02:15:09.863Z,97541.28
2022-11-21T02:17:38.669Z,97542.28
2022-11-21T02:20:14.535Z,97545.09
2022-11-21T02:22:54.648Z,97535.78
2022-11-21T02:25:28.495Z,97535.38
2022-11-21T02:28:02.745Z,97537.56
2022-11-21T02:30:36.520Z,97533.75
2022-11-21T02:33:06.134Z,97532.91
2022-11-21T02:35:35.518Z,97522.75
2022-11-21T02:38:11.384Z,97517.47
2022-11-21T02:40:49.892Z,97516.25
2022-11-21T02:43:24.729Z,97516.03
2022-11-21T02:45:53.503Z,97516.63
2022-11-21T02:48:22.298Z,97514.19
2022-11-21T02:50:51.070Z,97510.75
2022-11-21T02:53:20.973Z,97513.16
2022-11-21T02:55:51.183Z,97512.94
2022-11-21T02:58:19.934Z,97508.06
2022-11-21T03:00:48.651Z,97511.13
2022-11-21T03:03:17.670Z,97512.50
2022-11-21T03:05:46.418Z,97512.06
2022-11-21T03:08:15.159Z,97511.09
2022-11-21T03:10:43.940Z,97511.44
2022-11-21T03:13:15.126Z,97508.59
2022-11-21T03:15:43.929Z,97503.75
2022-11-21T03:18:12.700Z,97507.00
2022-11-21T03:20:41.582Z,97499.69
2022-11-21T03:23:10.275Z,97495.00
2022-11-21T03:25:38.980Z,97492.38
2022-11-21T03:28:07.819Z,97486.06
2022-11-21T03:30:38.079Z,97482.41
2022-11-21T03:33:06.830Z,97479.78
2022-11-21T03:35:35.551Z,97477.13
2022-11-21T03:38:04.408Z,97475.53
2022-11-21T03:40:33.157Z,97475.53
2022-11-21T03:43:07.908Z,97477.13
2022-11-21T03:45:38.040Z,97466.59
2022-11-21T03:48:07.685Z,97460.09
2022-11-21T03:50:36.572Z,97464.34
2022-11-21T03:53:05.384Z,97461.50
2022-11-21T03:55:47.412Z,97457.81
2022-11-21T03:58:16.236Z,97455.19
2022-11-21T04:00:48.987Z,97453.16
2022-11-21T04:03:26.663Z,97454.16
2022-11-21T04:05:55.467Z,97458.03
2022-11-21T04:08:24.183Z,97456.25
2022-11-21T04:10:55.708Z,97452.19
2022-11-21T04:13:24.580Z,97453.56
2022-11-21T04:15:54.837Z,97447.09
2022-11-21T04:18:23.776Z,97450.31
2022-11-21T04:20:58.981Z,97452.72
2022-11-21T04:23:29.099Z,97452.72
2022-11-21T04:25:58.199Z,97449.88
2022-11-21T04:28:27.578Z,97451.06
2022-11-21T04:31:05.753Z,97451.28
2022-11-21T04:33:37.627Z,97446.81
2022-11-21T04:36:06.881Z,97440.53
2022-11-21T04:38:35.704Z,97448.22
2022-11-21T04:41:04.905Z,97447.63
2022-11-21T04:43:33.762Z,97437.28
2022-11-21T04:46:03.994Z,97441.75
2022-11-21T04:48:33.789Z,97436.50
2022-11-21T04:51:02.517Z,97433.41
2022-11-21T04:53:31.232Z,97429.56
2022-11-21T04:56:00.419Z,97431.16
2022-11-21T04:58:29.297Z,97427.53
2022-11-21T05:00:58.124Z,97419.59
2022-11-21T05:03:28.268Z,97417.75
2022-11-21T05:05:57.015Z,97423.84
2022-11-21T05:08:25.795Z,97419.81
2022-11-21T05:11:12.044Z,97419.00
2022-11-21T05:13:40.751Z,97419.00
2022-11-21T05:16:09.576Z,97416.72
2022-11-21T05:18:39.934Z,97419.59
2022-11-21T05:21:08.776Z,97417.75
2022-11-21T05:23:37.543Z,97427.88
2022-11-21T05:26:06.314Z,97427.66
2022-11-21T05:28:35.128Z,97425.38
2022-11-21T05:31:03.896Z,97424.16
2022-11-21T05:33:32.631Z,97438.75
2022-11-21T05:36:11.882Z,97430.84
2022-11-21T05:38:41.702Z,97436.56
2022-11-21T05:41:11.020Z,97439.56
2022-11-21T05:43:47.895Z,97440.59
2022-11-21T05:46:19.735Z,97436.91
2022-11-21T05:48:50.809Z,97436.28
2022-11-21T05:51:22.035Z,97438.75
2022-11-21T05:53:51.009Z,97441.16
2022-11-21T05:56:20.980Z,97436.06
2022-11-21T05:58:49.730Z,97442.91
2022-11-21T06:01:39.237Z,97453.63
2022-11-21T06:04:07.462Z,97455.25
2022-11-21T06:06:38.162Z,97454.81
2022-11-21T06:09:06.963Z,97461.28
2022-11-21T06:11:35.778Z,97461.63
2022-11-21T06:14:08.804Z,97471.41
2022-11-21T06:16:37.606Z,97486.00
2022-11-21T06:19:06.486Z,97489.66
2022-11-21T06:21:37.414Z,97490.63
2022-11-21T06:24:07.974Z,97498.94
2022-11-21T06:26:36.772Z,97500.13
2022-11-21T06:29:05.489Z,97511.06
2022-11-21T06:31:34.266Z,97509.03
2022-11-21T06:34:03.357Z,97516.78
2022-11-21T06:36:32.156Z,97524.31
2022-11-21T06:39:02.418Z,97531.00
2022-11-21T06:41:32.081Z,97536.88
2022-11-21T06:44:01.967Z,97538.53
2022-11-21T06:46:31.162Z,97546.47
2022-11-21T06:48:59.947Z,97552.16
2022-11-21T06:51:28.693Z,97561.09
2022-11-21T06:54:00.101Z,97561.28
2022-11-21T06:56:32.646Z,97574.53
2022-11-21T06:59:01.631Z,97573.72
2022-11-21T07:01:30.373Z,97572.91
2022-11-21T07:03:59.236Z,97582.28
2022-11-21T07:06:28.044Z,97586.38
2022-11-21T07:11:47.169Z,97594.44
2022-11-21T07:14:14.872Z,97596.97
2022-11-21T07:16:43.650Z,97595.75
2022-11-21T07:19:13.073Z,97603.44
2022-11-21T07:21:43.166Z,97616.69
2022-11-21T07:24:12.231Z,97626.22
2022-11-21T07:26:40.942Z,97631.09
2022-11-21T07:29:11.073Z,97635.75
2022-11-21T07:31:39.802Z,97637.00
2022-11-21T07:34:08.556Z,97652.03
2022-11-21T07:36:37.418Z,97654.69
2022-11-21T07:39:06.651Z,97663.66
2022-11-21T07:41:35.402Z,97661.25
2022-11-21T07:44:04.387Z,97669.78
2022-11-21T07:46:34.629Z,97683.13
2022-11-21T07:49:03.927Z,97673.59
2022-11-21T07:51:32.837Z,97679.50
2022-11-21T07:54:01.595Z,97686.97
2022-11-21T07:56:30.321Z,97690.06
2022-11-21T07:58:59.135Z,97701.44
2022-11-21T08:01:28.128Z,97698.81
2022-11-21T08:03:58.282Z,97705.69
2022-11-21T08:06:26.994Z,97714.22
2022-11-21T08:08:56.081Z,97720.91
2022-11-21T08:11:25.900Z,97723.97
2022-11-21T08:13:54.625Z,97731.47
2022-11-21T08:16:28.032Z,97725.81
2022-11-21T08:18:58.250Z,97734.16
2022-11-21T08:21:27.628Z,97731.94
2022-11-21T08:23:56.505Z,97743.28
2022-11-21T08:26:25.261Z,97738.63
2022-11-21T08:28:59.589Z,97749.38
2022-11-21T08:31:28.823Z,97753.44
2022-11-21T08:33:59.648Z,97763.38
2022-11-21T08:36:28.480Z,97771.91
2022-11-21T08:38:57.317Z,97786.72
2022-11-21T08:41:43.831Z,97785.28
2022-11-21T08:44:14.232Z,97795.63
2022-11-21T08:46:43.243Z,97801.34
2022-11-21T08:49:13.373Z,97797.03
2022-11-21T08:51:42.137Z,97800.09
2022-11-21T08:54:11.353Z,97809.84
2022-11-21T08:56:40.123Z,97815.13
2022-11-21T08:59:08.882Z,97818.78
2022-11-21T09:01:37.653Z,97818.38
2022-11-21T09:04:06.901Z,97815.94
2022-11-21T09:06:37.741Z,97811.47
2022-11-21T09:09:07.777Z,97827.91
2022-11-21T09:11:38.135Z,97828.91
2022-11-21T09:14:24.215Z,97830.91
2022-11-21T09:17:10.925Z,97827.09
2022-11-21T09:19:39.724Z,97828.09
2022-11-21T09:22:09.865Z,97824.44
2022-11-21T09:24:38.623Z,97831.75
2022-11-21T09:27:10.094Z,97833.59
2022-11-21T09:29:39.010Z,97841.50
2022-11-21T09:32:07.983Z,97838.66
2022-11-21T09:34:36.712Z,97844.75
2022-11-21T09:37:05.456Z,97845.97
2022-11-21T09:39:35.736Z,97850.44
2022-11-21T09:42:48.331Z,97852.06
2022-11-21T09:45:24.738Z,97857.31
2022-11-21T09:47:54.826Z,97857.72
2022-11-21T09:50:32.416Z,97853.25
2022-11-21T09:53:08.518Z,97853.03
2022-11-21T09:55:48.006Z,97860.56
2022-11-21T09:58:27.883Z,97862.19
2022-11-21T10:00:57.030Z,97865.44
2022-11-21T10:03:32.886Z,97857.31
2022-11-21T10:06:14.014Z,97857.50
2022-11-21T10:08:56.683Z,97857.31
2022-11-21T10:11:58.444Z,97869.50
2022-11-21T10:14:48.128Z,97862.38
2022-11-21T10:17:32.927Z,97869.09
2022-11-21T10:20:32.235Z,97866.25
2022-11-21T10:23:22.904Z,97872.34
2022-11-21T10:25:58.363Z,97871.31
2022-11-21T10:28:39.859Z,97877.22
2022-11-21T10:31:16.160Z,97885.75
2022-11-21T10:33:45.545Z,97878.63
2022-11-21T10:36:26.156Z,97881.28
2022-11-21T10:39:01.884Z,97881.88
2022-11-21T10:41:47.500Z,97892.84
2022-11-21T10:44:45.279Z,97883.31
2022-11-21T10:47:27.425Z,97885.31
2022-11-21T10:50:14.244Z,97893.88
2022-11-21T10:52:50.500Z,97897.53
2022-11-21T10:55:20.213Z,97894.25
2022-11-21T10:57:51.219Z,97895.06
2022-11-21T11:00:29.734Z,97883.69
2022-11-21T11:03:17.194Z,97886.53
2022-11-21T11:05:58.983Z,97884.13
2022-11-21T11:08:31.878Z,97887.78
2022-11-21T11:11:07.878Z,97889.38
2022-11-21T11:13:58.225Z,97878.41
2022-11-21T11:16:31.003Z,97879.84
2022-11-21T11:19:03.391Z,97886.50
2022-11-21T11:21:45.160Z,97884.69
2022-11-21T11:24:30.144Z,97889.78
2022-11-21T11:27:02.729Z,97892.44
2022-11-21T11:29:35.383Z,97890.19
2022-11-21T11:32:21.562Z,97880.03
2022-11-21T11:35:01.217Z,97883.88
2022-11-21T11:37:41.113Z,97887.75
2022-11-21T11:40:23.117Z,97882.88
2022-11-21T11:43:27.741Z,97876.78
2022-11-21T11:46:47.129Z,97872.31
2022-11-21T11:49:31.700Z,97867.44
2022-11-21T11:52:07.309Z,97873.13
2022-11-21T11:54:47.757Z,97877.78
2022-11-21T11:57:18.301Z,97871.31
2022-11-21T11:59:55.245Z,97873.94
2022-11-21T12:02:34.903Z,97872.69
2022-11-21T12:05:16.771Z,97869.47
2022-11-21T12:11:14.610Z,97866.59
2022-11-21T12:13:45.300Z,97869.22
2022-11-21T12:16:16.578Z,97863.72
2022-11-21T12:18:56.037Z,97863.34
2022-11-21T12:21:26.647Z,97868.41
2022-11-21T12:23:58.093Z,97869.84
2022-11-21T12:26:49.714Z,97865.16
2022-11-21T12:29:38.592Z,97862.09
2022-11-21T12:32:30.405Z,97866.38
2022-11-21T12:35:40.261Z,97860.31
2022-11-21T12:38:33.321Z,97863.34
2022-11-21T12:41:33.317Z,97865.00
2022-11-21T12:44:22.060Z,97866.22
2022-11-21T12:47:14.923Z,97859.91
2022-11-21T12:50:13.130Z,97861.31
2022-11-21T12:53:05.893Z,97860.94
2022-11-21T12:55:40.908Z,97862.13
2022-11-21T12:58:28.929Z,97859.28
2022-11-21T13:01:22.266Z,97860.50
2022-11-21T13:04:01.805Z,97858.06
2022-11-21T13:06:35.895Z,97858.66
2022-11-21T13:09:13.457Z,97853.63
2022-11-21T13:12:01.748Z,97859.28
2022-11-21T13:14:42.107Z,97856.47
2022-11-21T13:17:42.710Z,97855.00
2022-11-21T13:20:24.811Z,97855.00
2022-11-21T13:22:57.254Z,97852.56
2022-11-21T13:25:49.514Z,97849.09
2022-11-21T13:28:36.434Z,97846.84
2022-11-21T13:31:30.800Z,97836.53
2022-11-21T13:34:00.368Z,97838.97
2022-11-21T13:36:43.894Z,97840.13
2022-11-21T13:39:39.086Z,97834.25
2022-11-21T13:42:33.488Z,97840.97
2022-11-21T13:45:43.314Z,97837.28
2022-11-21T13:48:59.397Z,97828.94
2022-11-21T13:51:56.478Z,97832.38
2022-11-21T13:55:20.285Z,97817.16
2022-11-21T13:58:12.791Z,97815.56
2022-11-21T14:01:08.221Z,97814.19
2022-11-21T14:04:07.408Z,97811.75
2022-11-21T14:06:43.442Z,97815.00
2022-11-21T14:09:29.300Z,97809.94
2022-11-21T14:12:02.344Z,97814.22
2022-11-21T14:14:38.412Z,97812.19
2022-11-21T14:17:35.338Z,97804.06
2022-11-21T14:20:20.169Z,97807.94
2022-11-21T14:22:58.789Z,97808.53
2022-11-21T14:25:37.989Z,97811.38
2022-11-21T14:28:13.132Z,97810.53
2022-11-21T14:30:44.390Z,97805.31
2022-11-21T14:33:26.018Z,97809.53
2022-11-21T14:35:59.363Z,97799.56
2022-11-21T14:38:30.725Z,97805.25
2022-11-21T14:41:30.022Z,97808.44
2022-11-21T14:44:22.038Z,97800.53
2022-11-21T14:46:52.316Z,97807.22
2022-11-21T14:49:30.487Z,97804.34
2022-11-21T14:52:22.514Z,97807.22
2022-11-21T14:57:46.252Z,97808.03
2022-11-21T15:00:58.136Z,97805.63
2022-11-21T15:03:22.823Z,97805.81
2022-11-21T15:06:05.216Z,97799.91
2022-11-21T15:11:31.746Z,97799.13
2022-11-21T15:14:16.507Z,97790.63
2022-11-21T15:16:48.020Z,97794.69
2022-11-21T15:19:23.325Z,97778.88
2022-11-21T15:21:58.159Z,97790.44
2022-11-21T15:24:40.568Z,97788.03
2022-11-21T15:27:34.130Z,97783.41
2022-11-21T15:30:08.420Z,97784.81
2022-11-21T15:33:02.199Z,97793.78
2022-11-21T15:35:47.437Z,97786.63
2022-11-21T15:38:48.234Z,97785.38
2022-11-21T15:41:30.563Z,97781.75
2022-11-21T15:44:22.248Z,97783.41
2022-11-21T15:46:53.719Z,97770.19
2022-11-21T15:49:32.870Z,97779.31
2022-11-21T15:52:10.208Z,97775.81
2022-11-21T15:54:40.642Z,97767.88
2022-11-21T15:57:10.557Z,97762.78
2022-11-21T15:59:39.752Z,97765.59
2022-11-21T16:02:13.568Z,97747.13
2022-11-21T16:04:42.886Z,97749.56
2022-11-21T16:07:11.757Z,97750.19
2022-11-21T16:09:43.224Z,97743.44
2022-11-21T16:12:11.979Z,97741.03
2022-11-21T16:14:40.885Z,97741.44
2022-11-21T16:17:10.074Z,97738.56
2022-11-21T16:19:39.316Z,97735.31
2022-11-21T16:22:08.358Z,97731.22
2022-11-21T16:24:37.358Z,97726.75
2022-11-21T16:27:07.596Z,97722.16
2022-11-21T16:29:36.537Z,97725.22
2022-11-21T16:32:05.639Z,97716.25
2022-11-21T16:34:34.479Z,97710.44
2022-11-21T16:37:07.316Z,97717.94
2022-11-21T16:39:36.545Z,97712.06
2022-11-21T16:42:06.876Z,97700.06
2022-11-21T16:44:35.710Z,97703.56
2022-11-21T16:47:08.269Z,97700.06
2022-11-21T16:49:42.904Z,97691.63
2022-11-21T16:52:12.577Z,97684.91
2022-11-21T16:54:41.544Z,97688.38
2022-11-21T16:57:11.767Z,97688.34
2022-11-21T16:59:40.599Z,97693.00
2022-11-21T17:02:10.669Z,97689.16
2022-11-21T17:04:39.553Z,97684.69
2022-11-21T17:07:08.336Z,97683.88
2022-11-21T17:09:37.196Z,97679.41
2022-11-21T17:12:06.911Z,97681.47
2022-11-21T17:14:37.219Z,97678.00
2022-11-21T17:17:06.079Z,97671.75
2022-11-21T17:19:34.947Z,97661.63
2022-11-21T17:22:05.126Z,97657.19
2022-11-21T17:24:43.611Z,97661.84
2022-11-21T17:27:12.813Z,97663.63
2022-11-21T17:29:43.914Z,97672.34
2022-11-21T17:32:13.572Z,97675.78
2022-11-21T17:34:43.428Z,97682.25
2022-11-21T17:37:13.305Z,97675.78
2022-11-21T17:39:42.374Z,97676.16
2022-11-21T17:42:11.231Z,97676.97
2022-11-21T17:44:40.793Z,97682.28
2022-11-21T17:47:13.075Z,97676.63
2022-11-21T17:49:42.305Z,97681.06
2022-11-21T17:52:12.601Z,97668.88
2022-11-21T17:54:42.530Z,97679.81
2022-11-21T17:57:14.229Z,97677.41
2022-11-21T17:59:45.087Z,97673.56
2022-11-21T18:02:15.634Z,97667.09
2022-11-21T18:04:47.985Z,97675.19
2022-11-21T18:07:17.667Z,97666.25
2022-11-21T18:09:48.166Z,97651.22
2022-11-21T18:12:19.859Z,97656.72
2022-11-21T18:14:50.082Z,97666.91
2022-11-21T18:17:20.677Z,97670.56
2022-11-21T18:19:53.183Z,97663.22
2022-11-21T18:22:29.285Z,97662.47
2022-11-21T18:24:58.677Z,97646.41
2022-11-21T18:27:29.585Z,97647.84
2022-11-21T18:29:58.400Z,97645.00
2022-11-21T18:32:29.854Z,97639.28
2022-11-21T18:35:02.114Z,97646.22
2022-11-21T18:37:31.754Z,97640.75
2022-11-21T18:40:00.513Z,97632.84
2022-11-21T18:42:30.227Z,97608.47
2022-11-21T18:45:02.121Z,97605.25
2022-11-21T18:47:32.475Z,97594.69
2022-11-21T18:50:01.873Z,97585.16
2022-11-21T18:52:34.853Z,97583.78
2022-11-21T18:55:04.708Z,97575.25
2022-11-21T18:57:34.087Z,97575.25
2022-11-21T19:00:03.523Z,97567.56
2022-11-21T19:02:33.647Z,97560.88
2022-11-21T19:05:02.641Z,97556.63
2022-11-21T19:07:31.473Z,97549.13
2022-11-21T19:10:20.792Z,97549.34
2022-11-21T19:12:50.495Z,97545.28
2022-11-21T19:15:19.382Z,97539.59
2022-11-21T19:17:49.577Z,97543.69
2022-11-21T19:20:18.908Z,97531.16
2022-11-21T19:22:47.643Z,97536.19
2022-11-21T19:25:16.534Z,97527.50
2022-11-21T19:27:45.396Z,97526.25
2022-11-21T19:30:15.474Z,97521.78
2022-11-21T19:32:44.791Z,97508.41
2022-11-21T19:35:15.140Z,97506.41
2022-11-21T19:37:44.238Z,97509.69
2022-11-21T19:40:14.574Z,97516.75
2022-11-21T19:42:43.492Z,97514.75
2022-11-21T19:45:12.698Z,97514.78
2022-11-21T19:47:41.813Z,97513.13
2022-11-21T19:50:11.675Z,97511.31
2022-11-21T19:52:42.050Z,97521.84
2022-11-21T19:55:11.247Z,97517.81
2022-11-21T19:57:40.222Z,97518.69
2022-11-21T20:00:10.802Z,97513.44
2022-11-21T20:02:39.716Z,97522.34
2022-11-21T20:05:09.523Z,97522.38
2022-11-21T20:07:38.450Z,97527.41
2022-11-21T20:10:09.658Z,97527.63
2022-11-21T20:12:38.423Z,97528.00
2022-11-21T20:15:08.649Z,97537.97
2022-11-21T20:17:37.451Z,97527.66
2022-11-21T20:20:07.598Z,97526.50
2022-11-21T20:22:36.681Z,97530.72
2022-11-21T20:25:08.211Z,97534.56
2022-11-21T20:27:36.958Z,97540.66
2022-11-21T20:30:07.676Z,97534.56
2022-11-21T20:32:36.475Z,97537.38
2022-11-21T20:35:06.049Z,97536.19
2022-11-21T20:37:34.902Z,97533.34
2022-11-21T20:40:03.635Z,97526.44
2022-11-21T20:42:34.567Z,97510.22
2022-11-21T20:47:52.371Z,97520.41
2022-11-21T20:50:58.894Z,97523.03
2022-11-21T20:56:05.568Z,97515.13
2022-11-21T20:58:38.386Z,97513.47
2022-11-21T21:01:08.587Z,97505.00
2022-11-21T21:03:38.608Z,97500.13
2022-11-21T21:06:09.760Z,97508.66
2022-11-21T21:08:39.464Z,97511.28
2022-11-21T21:11:30.652Z,97508.88
2022-11-21T21:14:02.391Z,97509.88
2022-11-21T21:16:34.456Z,97512.72
2022-11-21T21:19:04.018Z,97511.50
2022-11-21T21:21:33.227Z,97518.00
2022-11-21T21:24:05.418Z,97508.72
2022-11-21T21:26:41.889Z,97512.78
2022-11-21T21:29:16.990Z,97503.03
2022-11-21T21:31:50.972Z,97509.53
2022-11-21T21:34:22.762Z,97508.09
2022-11-21T21:36:52.166Z,97506.28
2022-11-21T21:39:21.898Z,97511.75
2022-11-21T21:41:51.427Z,97512.16
2022-11-21T21:44:22.234Z,97514.38
2022-11-21T21:46:51.048Z,97521.69
2022-11-21T21:49:21.122Z,97512.78
2022-11-21T21:51:50.255Z,97518.03
2022-11-21T21:54:21.948Z,97529.78
2022-11-21T21:56:52.340Z,97526.97
2022-11-21T21:59:22.565Z,97523.69
2022-11-21T22:01:51.961Z,97521.28
2022-11-21T22:04:20.774Z,97522.47
2022-11-21T22:06:49.940Z,97520.69
2022-11-21T22:09:18.712Z,97521.06
2022-11-21T22:11:47.462Z,97521.06
2022-11-21T22:14:17.878Z,97517.22
2022-11-21T22:16:47.961Z,97511.38
2022-11-21T22:21:56.965Z,97501.44
2022-11-21T22:24:26.274Z,97503.47
2022-11-21T22:26:54.385Z,97496.56
2022-11-21T22:29:21.802Z,97493.13
2022-11-21T22:31:50.154Z,97481.19
2022-11-21T22:34:18.913Z,97483.41
2022-11-21T22:36:47.826Z,97484.00
2022-11-21T22:39:18.189Z,97469.63
2022-11-21T22:41:46.962Z,97468.63
2022-11-21T22:44:15.662Z,97459.69
2022-11-21T22:46:44.435Z,97450.78
2022-11-21T22:49:13.148Z,97453.22
2022-11-21T22:51:41.867Z,97446.75
2022-11-21T22:54:10.673Z,97453.47
2022-11-21T22:56:40.843Z,97447.97
2022-11-21T22:59:09.549Z,97450.41
2022-11-21T23:01:38.387Z,97438.25
2022-11-21T23:04:07.115Z,97426.09
2022-11-21T23:06:35.940Z,97431.78
2022-11-21T23:09:04.839Z,97430.38
2022-11-21T23:11:40.303Z,97431.59
2022-11-21T23:14:10.962Z,97437.09
2022-11-21T23:16:39.738Z,97435.88
2022-11-21T23:19:08.653Z,97428.38
2022-11-21T23:21:37.389Z,97424.50
2022-11-21T23:24:07.157Z,97428.97
2022-11-21T23:26:36.365Z,97429.78
2022-11-21T23:29:08.840Z,97432.19
2022-11-21T23:31:39.304Z,97421.66
2022-11-21T23:34:11.189Z,97420.47
2022-11-21T23:36:40.368Z,97423.91
2022-11-21T23:39:09.290Z,97419.47
2022-11-21T23:41:38.109Z,97422.31
2022-11-21T23:44:07.418Z,97430.59
2022-11-21T23:46:36.146Z,97424.53
2022-11-21T23:49:06.272Z,97411.59
2022-11-21T23:51:34.997Z,97399.41
2022-11-21T23:54:03.832Z,97408.31
2022-11-21T23:56:32.646Z,97403.06
2022-11-21T23:59:01.655Z,97401.28
